sensor_id;sensor_type;location;lat;lon;timestamp;P1;durP1;ratioP1;P2;durP2;ratioP2
13321;SDS011;6730;46.248;6.930;2023-11-19T00:00:33;1.20;;;1.10;;
13321;SDS011;6730;46.248;6.930;2023-11-19T00:02:58;1.43;;;1.03;;
13321;SDS011;6730;46.248;6.930;2023-11-19T00:05:24;2.88;;;1.95;;
13321;SDS011;6730;46.248;6.930;2023-11-19T00:07:50;1.77;;;1.30;;
13321;SDS011;6730;46.248;6.930;2023-11-19T00:10:16;2.00;;;1.40;;
13321;SDS011;6730;46.248;6.930;2023-11-19T00:12:46;1.77;;;1.30;;
13321;SDS011;6730;46.248;6.930;2023-11-19T00:15:15;1.90;;;1.17;;
13321;SDS011;6730;46.248;6.930;2023-11-19T00:17:49;1.67;;;1.30;;
13321;SDS011;6730;46.248;6.930;2023-11-19T00:20:15;1.50;;;1.20;;
13321;SDS011;6730;46.248;6.930;2023-11-19T00:22:46;1.58;;;1.27;;
13321;SDS011;6730;46.248;6.930;2023-11-19T00:25:16;1.55;;;1.45;;
13321;SDS011;6730;46.248;6.930;2023-11-19T00:27:42;2.83;;;1.53;;
13321;SDS011;6730;46.248;6.930;2023-11-19T00:30:10;3.55;;;2.50;;
13321;SDS011;6730;46.248;6.930;2023-11-19T00:32:36;1.60;;;1.30;;
13321;SDS011;6730;46.248;6.930;2023-11-19T00:35:04;3.00;;;1.97;;
13321;SDS011;6730;46.248;6.930;2023-11-19T00:37:31;1.90;;;1.70;;
13321;SDS011;6730;46.248;6.930;2023-11-19T00:39:57;1.80;;;1.70;;
13321;SDS011;6730;46.248;6.930;2023-11-19T00:42:23;2.43;;;1.60;;
13321;SDS011;6730;46.248;6.930;2023-11-19T00:44:49;2.60;;;1.97;;
13321;SDS011;6730;46.248;6.930;2023-11-19T00:47:15;3.90;;;2.00;;
13321;SDS011;6730;46.248;6.930;2023-11-19T00:49:41;2.23;;;1.87;;
13321;SDS011;6730;46.248;6.930;2023-11-19T00:52:07;2.10;;;1.80;;
13321;SDS011;6730;46.248;6.930;2023-11-19T00:54:33;3.67;;;2.07;;
13321;SDS011;6730;46.248;6.930;2023-11-19T00:56:59;2.97;;;2.10;;
13321;SDS011;6730;46.248;6.930;2023-11-19T00:59:26;2.23;;;2.00;;
13321;SDS011;6730;46.248;6.930;2023-11-19T01:01:53;3.93;;;2.17;;
13321;SDS011;6730;46.248;6.930;2023-11-19T01:04:19;2.00;;;1.80;;
13321;SDS011;6730;46.248;6.930;2023-11-19T01:06:45;2.10;;;1.90;;
13321;SDS011;6730;46.248;6.930;2023-11-19T01:09:10;2.30;;;1.90;;
13321;SDS011;6730;46.248;6.930;2023-11-19T01:11:36;1.85;;;1.60;;
13321;SDS011;6730;46.248;6.930;2023-11-19T01:14:02;2.00;;;1.80;;
13321;SDS011;6730;46.248;6.930;2023-11-19T01:16:27;4.07;;;1.80;;
13321;SDS011;6730;46.248;6.930;2023-11-19T01:18:53;2.27;;;1.80;;
13321;SDS011;6730;46.248;6.930;2023-11-19T01:21:19;2.17;;;1.70;;
13321;SDS011;6730;46.248;6.930;2023-11-19T01:23:45;1.87;;;1.73;;
13321;SDS011;6730;46.248;6.930;2023-11-19T01:26:11;2.73;;;2.00;;
13321;SDS011;6730;46.248;6.930;2023-11-19T01:28:37;2.27;;;1.93;;
13321;SDS011;6730;46.248;6.930;2023-11-19T01:31:09;2.90;;;1.80;;
13321;SDS011;6730;46.248;6.930;2023-11-19T01:33:36;1.90;;;1.70;;
13321;SDS011;6730;46.248;6.930;2023-11-19T01:36:02;2.07;;;1.60;;
13321;SDS011;6730;46.248;6.930;2023-11-19T01:38:29;1.40;;;1.30;;
13321;SDS011;6730;46.248;6.930;2023-11-19T01:40:56;2.65;;;1.40;;
13321;SDS011;6730;46.248;6.930;2023-11-19T01:43:38;1.52;;;1.40;;
13321;SDS011;6730;46.248;6.930;2023-11-19T01:46:06;1.23;;;1.00;;
13321;SDS011;6730;46.248;6.930;2023-11-19T01:48:36;1.23;;;0.95;;
13321;SDS011;6730;46.248;6.930;2023-11-19T01:51:06;2.35;;;1.45;;
13321;SDS011;6730;46.248;6.930;2023-11-19T01:53:33;2.60;;;1.60;;
13321;SDS011;6730;46.248;6.930;2023-11-19T01:56:01;3.93;;;1.83;;
13321;SDS011;6730;46.248;6.930;2023-11-19T01:58:28;1.90;;;1.60;;
13321;SDS011;6730;46.248;6.930;2023-11-19T02:00:55;1.43;;;1.27;;
13321;SDS011;6730;46.248;6.930;2023-11-19T02:03:22;2.07;;;1.57;;
13321;SDS011;6730;46.248;6.930;2023-11-19T02:05:50;2.17;;;1.60;;
13321;SDS011;6730;46.248;6.930;2023-11-19T02:08:18;1.70;;;1.50;;
13321;SDS011;6730;46.248;6.930;2023-11-19T02:10:44;2.20;;;1.43;;
13321;SDS011;6730;46.248;6.930;2023-11-19T02:13:10;1.80;;;1.30;;
13321;SDS011;6730;46.248;6.930;2023-11-19T02:15:35;1.40;;;1.20;;
13321;SDS011;6730;46.248;6.930;2023-11-19T02:18:20;2.27;;;1.50;;
13321;SDS011;6730;46.248;6.930;2023-11-19T02:20:52;2.07;;;1.40;;
13321;SDS011;6730;46.248;6.930;2023-11-19T02:23:22;1.73;;;1.40;;
13321;SDS011;6730;46.248;6.930;2023-11-19T02:26:13;2.08;;;1.60;;
13321;SDS011;6730;46.248;6.930;2023-11-19T02:28:41;2.28;;;1.40;;
13321;SDS011;6730;46.248;6.930;2023-11-19T02:31:08;2.03;;;1.40;;
13321;SDS011;6730;46.248;6.930;2023-11-19T02:33:37;1.67;;;1.50;;
13321;SDS011;6730;46.248;6.930;2023-11-19T02:36:04;1.95;;;1.33;;
13321;SDS011;6730;46.248;6.930;2023-11-19T02:38:30;1.80;;;1.20;;
13321;SDS011;6730;46.248;6.930;2023-11-19T02:40:56;1.55;;;1.38;;
13321;SDS011;6730;46.248;6.930;2023-11-19T02:43:22;1.15;;;1.05;;
13321;SDS011;6730;46.248;6.930;2023-11-19T02:45:48;1.10;;;1.00;;
13321;SDS011;6730;46.248;6.930;2023-11-19T02:48:14;1.13;;;0.90;;
13321;SDS011;6730;46.248;6.930;2023-11-19T02:50:41;1.13;;;1.02;;
13321;SDS011;6730;46.248;6.930;2023-11-19T02:53:07;1.08;;;0.88;;
13321;SDS011;6730;46.248;6.930;2023-11-19T02:55:37;1.08;;;0.98;;
13321;SDS011;6730;46.248;6.930;2023-11-19T02:58:05;2.00;;;0.90;;
13321;SDS011;6730;46.248;6.930;2023-11-19T03:00:44;1.00;;;0.70;;
13321;SDS011;6730;46.248;6.930;2023-11-19T03:03:19;0.60;;;0.55;;
13321;SDS011;6730;46.248;6.930;2023-11-19T03:05:47;0.63;;;0.60;;
13321;SDS011;6730;46.248;6.930;2023-11-19T03:08:14;1.45;;;0.80;;
13321;SDS011;6730;46.248;6.930;2023-11-19T03:10:42;0.80;;;0.70;;
13321;SDS011;6730;46.248;6.930;2023-11-19T03:13:11;0.55;;;0.55;;
13321;SDS011;6730;46.248;6.930;2023-11-19T03:15:39;0.52;;;0.52;;
13321;SDS011;6730;46.248;6.930;2023-11-19T03:18:05;2.33;;;0.63;;
13321;SDS011;6730;46.248;6.930;2023-11-19T03:20:30;0.50;;;0.50;;
13321;SDS011;6730;46.248;6.930;2023-11-19T03:22:57;0.40;;;0.40;;
13321;SDS011;6730;46.248;6.930;2023-11-19T03:25:28;0.60;;;0.60;;
13321;SDS011;6730;46.248;6.930;2023-11-19T03:27:58;0.73;;;0.60;;
13321;SDS011;6730;46.248;6.930;2023-11-19T03:30:26;0.40;;;0.40;;
13321;SDS011;6730;46.248;6.930;2023-11-19T03:32:53;0.40;;;0.40;;
13321;SDS011;6730;46.248;6.930;2023-11-19T03:35:19;0.40;;;0.40;;
13321;SDS011;6730;46.248;6.930;2023-11-19T03:37:45;0.57;;;0.50;;
13321;SDS011;6730;46.248;6.930;2023-11-19T03:40:11;0.60;;;0.60;;
13321;SDS011;6730;46.248;6.930;2023-11-19T03:42:37;0.60;;;0.60;;
13321;SDS011;6730;46.248;6.930;2023-11-19T03:45:05;3.17;;;0.60;;
13321;SDS011;6730;46.248;6.930;2023-11-19T03:47:33;0.82;;;0.60;;
13321;SDS011;6730;46.248;6.930;2023-11-19T03:50:00;0.68;;;0.52;;
13321;SDS011;6730;46.248;6.930;2023-11-19T03:52:26;0.40;;;0.40;;
13321;SDS011;6730;46.248;6.930;2023-11-19T03:54:52;0.77;;;0.50;;
13321;SDS011;6730;46.248;6.930;2023-11-19T03:57:19;0.82;;;0.73;;
13321;SDS011;6730;46.248;6.930;2023-11-19T03:59:45;0.73;;;0.60;;
13321;SDS011;6730;46.248;6.930;2023-11-19T04:02:10;1.13;;;0.47;;
13321;SDS011;6730;46.248;6.930;2023-11-19T04:04:36;0.50;;;0.50;;
13321;SDS011;6730;46.248;6.930;2023-11-19T04:07:03;1.65;;;0.50;;
13321;SDS011;6730;46.248;6.930;2023-11-19T04:09:30;1.02;;;0.77;;
13321;SDS011;6730;46.248;6.930;2023-11-19T04:11:57;1.40;;;0.65;;
13321;SDS011;6730;46.248;6.930;2023-11-19T04:14:24;0.98;;;0.80;;
13321;SDS011;6730;46.248;6.930;2023-11-19T04:16:50;0.60;;;0.60;;
13321;SDS011;6730;46.248;6.930;2023-11-19T04:19:16;1.58;;;0.60;;
13321;SDS011;6730;46.248;6.930;2023-11-19T04:21:42;0.50;;;0.50;;
13321;SDS011;6730;46.248;6.930;2023-11-19T04:24:08;1.35;;;0.65;;
13321;SDS011;6730;46.248;6.930;2023-11-19T04:26:44;1.58;;;0.70;;
13321;SDS011;6730;46.248;6.930;2023-11-19T04:29:14;0.43;;;0.43;;
13321;SDS011;6730;46.248;6.930;2023-11-19T04:31:42;0.68;;;0.60;;
13321;SDS011;6730;46.248;6.930;2023-11-19T04:34:09;0.80;;;0.80;;
13321;SDS011;6730;46.248;6.930;2023-11-19T04:36:36;0.50;;;0.50;;
13321;SDS011;6730;46.248;6.930;2023-11-19T04:39:02;0.73;;;0.70;;
13321;SDS011;6730;46.248;6.930;2023-11-19T04:41:47;0.80;;;0.60;;
13321;SDS011;6730;46.248;6.930;2023-11-19T04:44:14;1.27;;;0.77;;
13321;SDS011;6730;46.248;6.930;2023-11-19T04:46:41;0.40;;;0.40;;
13321;SDS011;6730;46.248;6.930;2023-11-19T04:49:09;0.70;;;0.63;;
13321;SDS011;6730;46.248;6.930;2023-11-19T04:51:42;0.57;;;0.50;;
13321;SDS011;6730;46.248;6.930;2023-11-19T04:54:09;0.82;;;0.60;;
13321;SDS011;6730;46.248;6.930;2023-11-19T04:56:38;0.60;;;0.50;;
13321;SDS011;6730;46.248;6.930;2023-11-19T04:59:04;1.70;;;0.60;;
13321;SDS011;6730;46.248;6.930;2023-11-19T05:01:33;1.05;;;0.55;;
13321;SDS011;6730;46.248;6.930;2023-11-19T05:03:59;0.43;;;0.43;;
13321;SDS011;6730;46.248;6.930;2023-11-19T05:06:27;0.40;;;0.40;;
13321;SDS011;6730;46.248;6.930;2023-11-19T05:08:54;0.50;;;0.50;;
13321;SDS011;6730;46.248;6.930;2023-11-19T05:11:20;0.50;;;0.50;;
13321;SDS011;6730;46.248;6.930;2023-11-19T05:13:46;0.85;;;0.70;;
13321;SDS011;6730;46.248;6.930;2023-11-19T05:16:12;0.65;;;0.32;;
13321;SDS011;6730;46.248;6.930;2023-11-19T05:18:39;0.77;;;0.50;;
13321;SDS011;6730;46.248;6.930;2023-11-19T05:21:05;1.88;;;0.40;;
13321;SDS011;6730;46.248;6.930;2023-11-19T05:23:32;0.57;;;0.50;;
13321;SDS011;6730;46.248;6.930;2023-11-19T05:25:59;0.77;;;0.40;;
13321;SDS011;6730;46.248;6.930;2023-11-19T05:28:25;0.47;;;0.47;;
13321;SDS011;6730;46.248;6.930;2023-11-19T05:30:51;0.40;;;0.40;;
13321;SDS011;6730;46.248;6.930;2023-11-19T05:33:17;0.57;;;0.50;;
13321;SDS011;6730;46.248;6.930;2023-11-19T05:35:42;0.50;;;0.50;;
13321;SDS011;6730;46.248;6.930;2023-11-19T05:38:08;0.80;;;0.70;;
13321;SDS011;6730;46.248;6.930;2023-11-19T05:40:34;0.90;;;0.80;;
13321;SDS011;6730;46.248;6.930;2023-11-19T05:43:00;0.68;;;0.68;;
13321;SDS011;6730;46.248;6.930;2023-11-19T05:45:26;0.80;;;0.80;;
13321;SDS011;6730;46.248;6.930;2023-11-19T05:47:52;3.80;;;0.85;;
13321;SDS011;6730;46.248;6.930;2023-11-19T05:50:18;1.13;;;0.47;;
13321;SDS011;6730;46.248;6.930;2023-11-19T05:52:44;0.40;;;0.40;;
13321;SDS011;6730;46.248;6.930;2023-11-19T05:55:11;0.50;;;0.40;;
13321;SDS011;6730;46.248;6.930;2023-11-19T05:57:38;0.85;;;0.80;;
13321;SDS011;6730;46.248;6.930;2023-11-19T06:00:04;0.47;;;0.47;;
13321;SDS011;6730;46.248;6.930;2023-11-19T06:02:32;1.20;;;0.63;;
13321;SDS011;6730;46.248;6.930;2023-11-19T06:04:58;0.63;;;0.50;;
13321;SDS011;6730;46.248;6.930;2023-11-19T06:07:23;0.77;;;0.52;;
13321;SDS011;6730;46.248;6.930;2023-11-19T06:09:50;0.50;;;0.50;;
13321;SDS011;6730;46.248;6.930;2023-11-19T06:12:15;1.10;;;0.65;;
13321;SDS011;6730;46.248;6.930;2023-11-19T06:14:41;0.63;;;0.63;;
13321;SDS011;6730;46.248;6.930;2023-11-19T06:17:07;1.35;;;0.90;;
13321;SDS011;6730;46.248;6.930;2023-11-19T06:19:33;1.02;;;0.73;;
13321;SDS011;6730;46.248;6.930;2023-11-19T06:21:59;0.60;;;0.60;;
13321;SDS011;6730;46.248;6.930;2023-11-19T06:24:25;1.38;;;0.40;;
13321;SDS011;6730;46.248;6.930;2023-11-19T06:26:50;0.60;;;0.60;;
13321;SDS011;6730;46.248;6.930;2023-11-19T06:29:16;0.52;;;0.52;;
13321;SDS011;6730;46.248;6.930;2023-11-19T06:31:44;0.75;;;0.60;;
13321;SDS011;6730;46.248;6.930;2023-11-19T06:34:10;0.50;;;0.50;;
13321;SDS011;6730;46.248;6.930;2023-11-19T06:36:36;0.70;;;0.70;;
13321;SDS011;6730;46.248;6.930;2023-11-19T06:39:03;0.70;;;0.60;;
13321;SDS011;6730;46.248;6.930;2023-11-19T06:41:29;0.93;;;0.70;;
13321;SDS011;6730;46.248;6.930;2023-11-19T06:43:54;0.57;;;0.57;;
13321;SDS011;6730;46.248;6.930;2023-11-19T06:46:20;0.40;;;0.40;;
13321;SDS011;6730;46.248;6.930;2023-11-19T06:48:46;0.52;;;0.50;;
13321;SDS011;6730;46.248;6.930;2023-11-19T06:51:12;0.40;;;0.40;;
13321;SDS011;6730;46.248;6.930;2023-11-19T06:53:38;0.57;;;0.57;;
13321;SDS011;6730;46.248;6.930;2023-11-19T06:56:16;1.05;;;0.95;;
13321;SDS011;6730;46.248;6.930;2023-11-19T06:58:47;2.83;;;1.17;;
13321;SDS011;6730;46.248;6.930;2023-11-19T07:01:13;0.80;;;0.80;;
13321;SDS011;6730;46.248;6.930;2023-11-19T07:03:40;0.77;;;0.73;;
13321;SDS011;6730;46.248;6.930;2023-11-19T07:06:06;1.10;;;1.00;;
13321;SDS011;6730;46.248;6.930;2023-11-19T07:08:31;1.15;;;1.02;;
13321;SDS011;6730;46.248;6.930;2023-11-19T07:10:57;2.88;;;0.65;;
13321;SDS011;6730;46.248;6.930;2023-11-19T07:13:23;0.60;;;0.60;;
13321;SDS011;6730;46.248;6.930;2023-11-19T07:15:48;0.70;;;0.70;;
13321;SDS011;6730;46.248;6.930;2023-11-19T07:18:14;1.10;;;1.00;;
13321;SDS011;6730;46.248;6.930;2023-11-19T07:20:40;1.35;;;1.25;;
13321;SDS011;6730;46.248;6.930;2023-11-19T07:23:06;1.20;;;1.10;;
13321;SDS011;6730;46.248;6.930;2023-11-19T07:25:31;1.20;;;1.10;;
13321;SDS011;6730;46.248;6.930;2023-11-19T07:27:57;1.15;;;1.05;;
13321;SDS011;6730;46.248;6.930;2023-11-19T07:30:22;1.55;;;1.40;;
13321;SDS011;6730;46.248;6.930;2023-11-19T07:32:48;2.47;;;1.30;;
13321;SDS011;6730;46.248;6.930;2023-11-19T07:35:14;1.52;;;1.20;;
13321;SDS011;6730;46.248;6.930;2023-11-19T07:37:43;1.30;;;1.10;;
13321;SDS011;6730;46.248;6.930;2023-11-19T07:40:11;1.38;;;1.17;;
13321;SDS011;6730;46.248;6.930;2023-11-19T07:42:36;2.33;;;1.20;;
13321;SDS011;6730;46.248;6.930;2023-11-19T07:45:02;1.00;;;0.90;;
13321;SDS011;6730;46.248;6.930;2023-11-19T07:47:30;0.80;;;0.80;;
13321;SDS011;6730;46.248;6.930;2023-11-19T07:49:56;1.33;;;1.15;;
13321;SDS011;6730;46.248;6.930;2023-11-19T07:52:21;1.00;;;0.98;;
13321;SDS011;6730;46.248;6.930;2023-11-19T07:54:47;1.40;;;1.30;;
13321;SDS011;6730;46.248;6.930;2023-11-19T07:57:13;1.42;;;1.05;;
13321;SDS011;6730;46.248;6.930;2023-11-19T07:59:38;1.30;;;1.00;;
13321;SDS011;6730;46.248;6.930;2023-11-19T08:02:05;1.17;;;1.08;;
13321;SDS011;6730;46.248;6.930;2023-11-19T08:04:30;1.23;;;0.90;;
13321;SDS011;6730;46.248;6.930;2023-11-19T08:06:56;1.23;;;1.10;;
13321;SDS011;6730;46.248;6.930;2023-11-19T08:09:22;0.90;;;0.70;;
13321;SDS011;6730;46.248;6.930;2023-11-19T08:11:48;1.15;;;1.05;;
13321;SDS011;6730;46.248;6.930;2023-11-19T08:14:14;0.82;;;0.82;;
13321;SDS011;6730;46.248;6.930;2023-11-19T08:16:40;1.10;;;1.00;;
13321;SDS011;6730;46.248;6.930;2023-11-19T08:19:06;2.10;;;1.15;;
13321;SDS011;6730;46.248;6.930;2023-11-19T08:21:33;1.20;;;1.10;;
13321;SDS011;6730;46.248;6.930;2023-11-19T08:23:59;1.38;;;1.00;;
13321;SDS011;6730;46.248;6.930;2023-11-19T08:26:24;1.38;;;1.10;;
13321;SDS011;6730;46.248;6.930;2023-11-19T08:28:50;1.48;;;1.20;;
13321;SDS011;6730;46.248;6.930;2023-11-19T08:31:17;1.17;;;0.98;;
13321;SDS011;6730;46.248;6.930;2023-11-19T08:33:42;1.27;;;1.17;;
13321;SDS011;6730;46.248;6.930;2023-11-19T08:36:08;1.52;;;1.08;;
13321;SDS011;6730;46.248;6.930;2023-11-19T08:38:40;1.85;;;1.10;;
13321;SDS011;6730;46.248;6.930;2023-11-19T08:41:05;1.08;;;0.98;;
13321;SDS011;6730;46.248;6.930;2023-11-19T08:43:31;1.80;;;1.10;;
13321;SDS011;6730;46.248;6.930;2023-11-19T08:45:56;0.98;;;0.90;;
13321;SDS011;6730;46.248;6.930;2023-11-19T08:48:22;1.00;;;0.90;;
13321;SDS011;6730;46.248;6.930;2023-11-19T08:50:48;2.13;;;1.10;;
13321;SDS011;6730;46.248;6.930;2023-11-19T08:53:13;1.17;;;0.98;;
13321;SDS011;6730;46.248;6.930;2023-11-19T08:55:39;1.10;;;1.00;;
13321;SDS011;6730;46.248;6.930;2023-11-19T08:58:07;1.17;;;1.08;;
13321;SDS011;6730;46.248;6.930;2023-11-19T09:00:33;1.20;;;1.10;;
13321;SDS011;6730;46.248;6.930;2023-11-19T09:02:59;2.27;;;1.47;;
13321;SDS011;6730;46.248;6.930;2023-11-19T09:05:24;3.20;;;2.50;;
13321;SDS011;6730;46.248;6.930;2023-11-19T09:07:50;2.97;;;2.28;;
13321;SDS011;6730;46.248;6.930;2023-11-19T09:10:16;5.53;;;3.70;;
13321;SDS011;6730;46.248;6.930;2023-11-19T09:12:41;5.38;;;2.65;;
13321;SDS011;6730;46.248;6.930;2023-11-19T09:15:07;2.83;;;1.92;;
13321;SDS011;6730;46.248;6.930;2023-11-19T09:17:35;3.45;;;2.90;;
13321;SDS011;6730;46.248;6.930;2023-11-19T09:20:01;8.43;;;7.57;;
13321;SDS011;6730;46.248;6.930;2023-11-19T09:22:27;3.55;;;3.20;;
13321;SDS011;6730;46.248;6.930;2023-11-19T09:24:52;3.42;;;3.13;;
13321;SDS011;6730;46.248;6.930;2023-11-19T09:27:24;3.78;;;3.47;;
13321;SDS011;6730;46.248;6.930;2023-11-19T09:29:50;4.45;;;4.05;;
13321;SDS011;6730;46.248;6.930;2023-11-19T09:32:22;13.50;;;8.75;;
13321;SDS011;6730;46.248;6.930;2023-11-19T09:34:48;16.20;;;12.48;;
13321;SDS011;6730;46.248;6.930;2023-11-19T09:37:13;16.55;;;13.55;;
13321;SDS011;6730;46.248;6.930;2023-11-19T09:39:39;11.02;;;9.27;;
13321;SDS011;6730;46.248;6.930;2023-11-19T09:42:08;16.08;;;12.30;;
13321;SDS011;6730;46.248;6.930;2023-11-19T09:44:34;9.65;;;8.18;;
13321;SDS011;6730;46.248;6.930;2023-11-19T09:47:05;8.77;;;5.10;;
13321;SDS011;6730;46.248;6.930;2023-11-19T09:49:32;5.55;;;3.78;;
13321;SDS011;6730;46.248;6.930;2023-11-19T09:52:00;4.78;;;4.28;;
13321;SDS011;6730;46.248;6.930;2023-11-19T09:54:26;3.88;;;3.03;;
13321;SDS011;6730;46.248;6.930;2023-11-19T09:56:52;3.15;;;2.85;;
13321;SDS011;6730;46.248;6.930;2023-11-19T09:59:18;3.22;;;2.70;;
13321;SDS011;6730;46.248;6.930;2023-11-19T10:01:45;2.20;;;1.83;;
13321;SDS011;6730;46.248;6.930;2023-11-19T10:04:12;2.33;;;2.03;;
13321;SDS011;6730;46.248;6.930;2023-11-19T10:06:42;3.42;;;2.72;;
13321;SDS011;6730;46.248;6.930;2023-11-19T10:09:08;5.10;;;4.22;;
13321;SDS011;6730;46.248;6.930;2023-11-19T10:11:33;7.50;;;6.25;;
13321;SDS011;6730;46.248;6.930;2023-11-19T10:13:59;3.53;;;3.03;;
13321;SDS011;6730;46.248;6.930;2023-11-19T10:16:29;4.05;;;3.33;;
13321;SDS011;6730;46.248;6.930;2023-11-19T10:18:56;4.15;;;3.65;;
13321;SDS011;6730;46.248;6.930;2023-11-19T10:21:22;5.10;;;3.70;;
13321;SDS011;6730;46.248;6.930;2023-11-19T10:23:49;3.92;;;3.33;;
13321;SDS011;6730;46.248;6.930;2023-11-19T10:29:07;3.88;;;2.70;;
13321;SDS011;6730;46.248;6.930;2023-11-19T10:31:33;2.92;;;2.13;;
13321;SDS011;6730;46.248;6.930;2023-11-19T10:33:58;2.08;;;1.85;;
13321;SDS011;6730;46.248;6.930;2023-11-19T10:36:36;4.85;;;4.45;;
13321;SDS011;6730;46.248;6.930;2023-11-19T10:39:05;5.72;;;4.95;;
13321;SDS011;6730;46.248;6.930;2023-11-19T10:41:32;5.18;;;4.75;;
13321;SDS011;6730;46.248;6.930;2023-11-19T10:43:58;5.43;;;3.92;;
13321;SDS011;6730;46.248;6.930;2023-11-19T10:46:35;5.18;;;3.33;;
13321;SDS011;6730;46.248;6.930;2023-11-19T10:49:06;30.73;;;5.72;;
13321;SDS011;6730;46.248;6.930;2023-11-19T10:51:32;6.38;;;3.05;;
13321;SDS011;6730;46.248;6.930;2023-11-19T10:54:04;3.63;;;3.25;;
13321;SDS011;6730;46.248;6.930;2023-11-19T10:56:31;2.90;;;2.38;;
13321;SDS011;6730;46.248;6.930;2023-11-19T10:58:59;3.33;;;3.03;;
13321;SDS011;6730;46.248;6.930;2023-11-19T11:01:26;3.55;;;2.80;;
13321;SDS011;6730;46.248;6.930;2023-11-19T11:03:59;3.40;;;2.67;;
13321;SDS011;6730;46.248;6.930;2023-11-19T11:06:26;3.55;;;2.30;;
13321;SDS011;6730;46.248;6.930;2023-11-19T11:08:52;2.45;;;2.25;;
13321;SDS011;6730;46.248;6.930;2023-11-19T11:11:19;3.08;;;2.40;;
13321;SDS011;6730;46.248;6.930;2023-11-19T11:13:49;2.53;;;2.10;;
13321;SDS011;6730;46.248;6.930;2023-11-19T11:16:18;3.17;;;2.60;;
13321;SDS011;6730;46.248;6.930;2023-11-19T11:18:45;3.03;;;2.30;;
13321;SDS011;6730;46.248;6.930;2023-11-19T11:21:15;6.75;;;4.55;;
13321;SDS011;6730;46.248;6.930;2023-11-19T11:26:44;2.40;;;2.20;;
13321;SDS011;6730;46.248;6.930;2023-11-19T11:35:08;4.53;;;3.97;;
13321;SDS011;6730;46.248;6.930;2023-11-19T11:37:44;2.55;;;2.35;;
13321;SDS011;6730;46.248;6.930;2023-11-19T11:40:17;2.20;;;2.00;;
13321;SDS011;6730;46.248;6.930;2023-11-19T11:42:48;3.97;;;2.65;;
13321;SDS011;6730;46.248;6.930;2023-11-19T11:45:16;2.40;;;2.20;;
13321;SDS011;6730;46.248;6.930;2023-11-19T11:50:09;2.80;;;2.60;;
13321;SDS011;6730;46.248;6.930;2023-11-19T11:55:27;2.78;;;2.53;;
13321;SDS011;6730;46.248;6.930;2023-11-19T11:57:55;4.22;;;3.53;;
13321;SDS011;6730;46.248;6.930;2023-11-19T12:00:21;4.65;;;3.75;;
13321;SDS011;6730;46.248;6.930;2023-11-19T12:02:51;4.60;;;4.18;;
13321;SDS011;6730;46.248;6.930;2023-11-19T12:05:17;4.10;;;3.42;;
13321;SDS011;6730;46.248;6.930;2023-11-19T12:07:45;4.60;;;3.80;;
13321;SDS011;6730;46.248;6.930;2023-11-19T12:10:25;7.00;;;5.18;;
13321;SDS011;6730;46.248;6.930;2023-11-19T12:12:58;7.00;;;4.82;;
13321;SDS011;6730;46.248;6.930;2023-11-19T12:15:24;3.17;;;2.65;;
13321;SDS011;6730;46.248;6.930;2023-11-19T12:17:52;5.28;;;4.30;;
13321;SDS011;6730;46.248;6.930;2023-11-19T12:20:19;4.35;;;3.80;;
13321;SDS011;6730;46.248;6.930;2023-11-19T12:22:46;5.88;;;4.95;;
13321;SDS011;6730;46.248;6.930;2023-11-19T12:25:14;4.30;;;3.90;;
13321;SDS011;6730;46.248;6.930;2023-11-19T12:27:51;5.00;;;4.43;;
13321;SDS011;6730;46.248;6.930;2023-11-19T12:30:21;4.18;;;3.78;;
13321;SDS011;6730;46.248;6.930;2023-11-19T12:32:48;3.45;;;3.15;;
13321;SDS011;6730;46.248;6.930;2023-11-19T12:35:14;173.82;;;15.27;;
13321;SDS011;6730;46.248;6.930;2023-11-19T12:37:43;4.88;;;3.10;;
13321;SDS011;6730;46.248;6.930;2023-11-19T12:40:11;3.47;;;3.17;;
13321;SDS011;6730;46.248;6.930;2023-11-19T12:42:41;5.22;;;4.20;;
13321;SDS011;6730;46.248;6.930;2023-11-19T12:45:06;3.65;;;3.30;;
13321;SDS011;6730;46.248;6.930;2023-11-19T12:47:36;3.67;;;3.25;;
13321;SDS011;6730;46.248;6.930;2023-11-19T12:50:02;4.00;;;3.33;;
13321;SDS011;6730;46.248;6.930;2023-11-19T12:52:29;4.13;;;2.17;;
13321;SDS011;6730;46.248;6.930;2023-11-19T12:54:55;3.67;;;2.30;;
13321;SDS011;6730;46.248;6.930;2023-11-19T12:57:35;4.75;;;4.25;;
13321;SDS011;6730;46.248;6.930;2023-11-19T13:00:02;57.53;;;9.13;;
13321;SDS011;6730;46.248;6.930;2023-11-19T13:02:47;8.10;;;7.13;;
13321;SDS011;6730;46.248;6.930;2023-11-19T13:05:30;6.38;;;4.82;;
13321;SDS011;6730;46.248;6.930;2023-11-19T13:08:04;3.50;;;3.20;;
13321;SDS011;6730;46.248;6.930;2023-11-19T13:10:50;6.15;;;5.55;;
13321;SDS011;6730;46.248;6.930;2023-11-19T13:13:17;5.38;;;4.88;;
13321;SDS011;6730;46.248;6.930;2023-11-19T13:15:43;181.80;;;15.13;;
13321;SDS011;6730;46.248;6.930;2023-11-19T13:18:09;4.20;;;3.80;;
13321;SDS011;6730;46.248;6.930;2023-11-19T13:20:36;67.55;;;8.35;;
13321;SDS011;6730;46.248;6.930;2023-11-19T13:23:05;61.95;;;11.93;;
13321;SDS011;6730;46.248;6.930;2023-11-19T13:25:32;85.32;;;10.80;;
13321;SDS011;6730;46.248;6.930;2023-11-19T13:27:58;2.05;;;1.85;;
13321;SDS011;6730;46.248;6.930;2023-11-19T13:30:24;3.88;;;2.30;;
13321;SDS011;6730;46.248;6.930;2023-11-19T13:32:51;5.22;;;3.80;;
13321;SDS011;6730;46.248;6.930;2023-11-19T13:35:18;5.63;;;4.80;;
13321;SDS011;6730;46.248;6.930;2023-11-19T13:37:44;3.78;;;3.47;;
13321;SDS011;6730;46.248;6.930;2023-11-19T13:40:10;2.55;;;2.35;;
13321;SDS011;6730;46.248;6.930;2023-11-19T13:42:38;21.40;;;3.45;;
13321;SDS011;6730;46.248;6.930;2023-11-19T13:45:07;122.93;;;8.32;;
13321;SDS011;6730;46.248;6.930;2023-11-19T13:47:40;218.57;;;11.68;;
13321;SDS011;6730;46.248;6.930;2023-11-19T13:50:08;83.40;;;8.13;;
13321;SDS011;6730;46.248;6.930;2023-11-19T13:52:38;3.75;;;3.42;;
13321;SDS011;6730;46.248;6.930;2023-11-19T13:55:05;3.67;;;3.35;;
13321;SDS011;6730;46.248;6.930;2023-11-19T13:57:33;5.35;;;2.70;;
13321;SDS011;6730;46.248;6.930;2023-11-19T13:59:59;13.30;;;7.30;;
13321;SDS011;6730;46.248;6.930;2023-11-19T14:02:27;3.92;;;3.40;;
13321;SDS011;6730;46.248;6.930;2023-11-19T14:04:53;4.65;;;3.88;;
13321;SDS011;6730;46.248;6.930;2023-11-19T14:07:19;4.40;;;3.60;;
13321;SDS011;6730;46.248;6.930;2023-11-19T14:09:45;3.20;;;2.90;;
13321;SDS011;6730;46.248;6.930;2023-11-19T14:12:10;3.55;;;2.92;;
13321;SDS011;6730;46.248;6.930;2023-11-19T14:14:37;3.08;;;2.67;;
13321;SDS011;6730;46.248;6.930;2023-11-19T14:17:04;3.28;;;2.65;;
13321;SDS011;6730;46.248;6.930;2023-11-19T14:19:30;4.80;;;4.30;;
13321;SDS011;6730;46.248;6.930;2023-11-19T14:21:55;4.10;;;3.70;;
13321;SDS011;6730;46.248;6.930;2023-11-19T14:24:21;3.35;;;3.05;;
13321;SDS011;6730;46.248;6.930;2023-11-19T14:26:48;3.63;;;3.22;;
13321;SDS011;6730;46.248;6.930;2023-11-19T14:29:15;3.40;;;3.10;;
13321;SDS011;6730;46.248;6.930;2023-11-19T14:31:40;4.10;;;3.40;;
13321;SDS011;6730;46.248;6.930;2023-11-19T14:34:06;3.30;;;3.00;;
13321;SDS011;6730;46.248;6.930;2023-11-19T14:36:32;2.58;;;2.38;;
13321;SDS011;6730;46.248;6.930;2023-11-19T14:38:57;3.58;;;2.78;;
13321;SDS011;6730;46.248;6.930;2023-11-19T14:41:25;2.97;;;2.55;;
13321;SDS011;6730;46.248;6.930;2023-11-19T14:43:51;2.50;;;2.20;;
13321;SDS011;6730;46.248;6.930;2023-11-19T14:46:17;2.22;;;1.92;;
13321;SDS011;6730;46.248;6.930;2023-11-19T14:48:43;1.40;;;1.30;;
13321;SDS011;6730;46.248;6.930;2023-11-19T14:51:08;1.10;;;1.00;;
13321;SDS011;6730;46.248;6.930;2023-11-19T14:53:34;1.40;;;1.30;;
13321;SDS011;6730;46.248;6.930;2023-11-19T14:56:00;1.67;;;0.80;;
13321;SDS011;6730;46.248;6.930;2023-11-19T14:58:27;5.75;;;3.47;;
13321;SDS011;6730;46.248;6.930;2023-11-19T15:00:53;163.60;;;14.60;;
13321;SDS011;6730;46.248;6.930;2023-11-19T15:03:18;8.40;;;5.75;;
13321;SDS011;6730;46.248;6.930;2023-11-19T15:05:47;5.20;;;3.42;;
13321;SDS011;6730;46.248;6.930;2023-11-19T15:08:13;141.88;;;13.43;;
13321;SDS011;6730;46.248;6.930;2023-11-19T15:10:44;91.25;;;10.05;;
13321;SDS011;6730;46.248;6.930;2023-11-19T15:13:10;3.90;;;3.47;;
13321;SDS011;6730;46.248;6.930;2023-11-19T15:15:36;152.13;;;12.45;;
13321;SDS011;6730;46.248;6.930;2023-11-19T15:18:03;195.13;;;15.48;;